sensor_id;sensor_type;location;lat;lon;timestamp;temperature;humidity
12156;DHT22;6141;49.092;8.516;2022-09-09T00:00:26;18.80;68.50
12156;DHT22;6141;49.092;8.516;2022-09-09T00:03:22;18.80;69.60
12156;DHT22;6141;49.092;8.516;2022-09-09T00:06:21;18.90;69.70
12156;DHT22;6141;49.092;8.516;2022-09-09T00:09:29;18.70;69.20
12156;DHT22;6141;49.092;8.516;2022-09-09T00:12:40;18.60;70.00
12156;DHT22;6141;49.092;8.516;2022-09-09T00:15:35;18.70;69.70
12156;DHT22;6141;49.092;8.516;2022-09-09T00:18:38;18.80;69.80
12156;DHT22;6141;49.092;8.516;2022-09-09T00:21:36;19.10;69.90
12156;DHT22;6141;49.092;8.516;2022-09-09T00:24:16;19.20;68.70
12156;DHT22;6141;49.092;8.516;2022-09-09T00:27:26;19.30;67.80
12156;DHT22;6141;49.092;8.516;2022-09-09T00:30:19;19.00;66.90
12156;DHT22;6141;49.092;8.516;2022-09-09T00:33:18;19.00;67.80
12156;DHT22;6141;49.092;8.516;2022-09-09T00:36:13;18.90;67.80
12156;DHT22;6141;49.092;8.516;2022-09-09T00:39:34;18.70;67.90
12156;DHT22;6141;49.092;8.516;2022-09-09T00:42:41;18.60;68.70
12156;DHT22;6141;49.092;8.516;2022-09-09T00:45:45;18.60;70.00
12156;DHT22;6141;49.092;8.516;2022-09-09T00:48:50;18.50;70.00
12156;DHT22;6141;49.092;8.516;2022-09-09T00:51:48;18.60;70.10
12156;DHT22;6141;49.092;8.516;2022-09-09T00:54:51;18.70;70.70
12156;DHT22;6141;49.092;8.516;2022-09-09T00:57:43;18.60;70.30
12156;DHT22;6141;49.092;8.516;2022-09-09T01:00:33;18.70;70.10
12156;DHT22;6141;49.092;8.516;2022-09-09T01:03:37;18.90;69.00
12156;DHT22;6141;49.092;8.516;2022-09-09T01:06:25;18.90;69.30
12156;DHT22;6141;49.092;8.516;2022-09-09T01:09:22;19.00;69.30
12156;DHT22;6141;49.092;8.516;2022-09-09T01:12:45;19.00;69.90
12156;DHT22;6141;49.092;8.516;2022-09-09T01:15:37;18.90;69.80
12156;DHT22;6141;49.092;8.516;2022-09-09T01:19:03;18.80;70.10
12156;DHT22;6141;49.092;8.516;2022-09-09T01:21:58;18.90;70.70
12156;DHT22;6141;49.092;8.516;2022-09-09T01:28:42;18.80;71.30
12156;DHT22;6141;49.092;8.516;2022-09-09T01:31:38;18.90;69.80
12156;DHT22;6141;49.092;8.516;2022-09-09T01:34:21;19.00;68.40
12156;DHT22;6141;49.092;8.516;2022-09-09T01:37:04;18.70;69.30
12156;DHT22;6141;49.092;8.516;2022-09-09T01:40:03;18.50;70.50
12156;DHT22;6141;49.092;8.516;2022-09-09T01:42:56;18.30;71.90
12156;DHT22;6141;49.092;8.516;2022-09-09T01:46:25;17.80;75.20
12156;DHT22;6141;49.092;8.516;2022-09-09T01:52:21;17.60;78.30
12156;DHT22;6141;49.092;8.516;2022-09-09T01:55:29;17.30;79.40
12156;DHT22;6141;49.092;8.516;2022-09-09T01:58:26;17.30;81.60
12156;DHT22;6141;49.092;8.516;2022-09-09T02:01:35;17.30;82.70
12156;DHT22;6141;49.092;8.516;2022-09-09T02:04:30;17.30;84.40
12156;DHT22;6141;49.092;8.516;2022-09-09T02:07:21;17.40;83.40
12156;DHT22;6141;49.092;8.516;2022-09-09T02:10:05;17.30;84.00
12156;DHT22;6141;49.092;8.516;2022-09-09T02:16:21;17.00;85.80
12156;DHT22;6141;49.092;8.516;2022-09-09T02:19:34;17.00;84.90
12156;DHT22;6141;49.092;8.516;2022-09-09T02:22:24;17.10;84.60
12156;DHT22;6141;49.092;8.516;2022-09-09T02:25:43;17.10;84.70
12156;DHT22;6141;49.092;8.516;2022-09-09T02:28:55;17.30;84.10
12156;DHT22;6141;49.092;8.516;2022-09-09T02:31:54;17.30;82.70
12156;DHT22;6141;49.092;8.516;2022-09-09T02:34:54;17.60;81.80
12156;DHT22;6141;49.092;8.516;2022-09-09T02:37:55;17.60;81.00
12156;DHT22;6141;49.092;8.516;2022-09-09T02:41:16;17.80;79.30
12156;DHT22;6141;49.092;8.516;2022-09-09T02:44:34;17.70;79.20
12156;DHT22;6141;49.092;8.516;2022-09-09T02:47:35;18.00;77.70
12156;DHT22;6141;49.092;8.516;2022-09-09T02:50:35;17.90;77.10
12156;DHT22;6141;49.092;8.516;2022-09-09T02:53:47;18.00;77.00
12156;DHT22;6141;49.092;8.516;2022-09-09T02:57:00;18.20;76.40
12156;DHT22;6141;49.092;8.516;2022-09-09T02:59:55;18.40;75.70
12156;DHT22;6141;49.092;8.516;2022-09-09T03:02:46;18.40;75.00
12156;DHT22;6141;49.092;8.516;2022-09-09T03:05:25;18.30;75.30
12156;DHT22;6141;49.092;8.516;2022-09-09T03:08:19;18.50;75.00
12156;DHT22;6141;49.092;8.516;2022-09-09T03:11:09;18.40;74.80
12156;DHT22;6141;49.092;8.516;2022-09-09T03:14:00;18.40;74.20
12156;DHT22;6141;49.092;8.516;2022-09-09T03:17:00;18.40;74.20
12156;DHT22;6141;49.092;8.516;2022-09-09T03:20:03;18.50;74.30
12156;DHT22;6141;49.092;8.516;2022-09-09T03:22:53;18.50;74.30
12156;DHT22;6141;49.092;8.516;2022-09-09T03:25:33;18.60;75.10
12156;DHT22;6141;49.092;8.516;2022-09-09T03:28:20;18.50;74.30
12156;DHT22;6141;49.092;8.516;2022-09-09T03:31:35;18.50;74.90
12156;DHT22;6141;49.092;8.516;2022-09-09T03:34:44;18.70;74.40
12156;DHT22;6141;49.092;8.516;2022-09-09T03:37:27;18.60;74.30
12156;DHT22;6141;49.092;8.516;2022-09-09T03:40:20;18.50;73.20
12156;DHT22;6141;49.092;8.516;2022-09-09T03:43:36;18.50;73.30
12156;DHT22;6141;49.092;8.516;2022-09-09T03:46:25;18.60;73.70
12156;DHT22;6141;49.092;8.516;2022-09-09T03:49:29;18.70;73.20
12156;DHT22;6141;49.092;8.516;2022-09-09T03:52:40;18.70;73.20
12156;DHT22;6141;49.092;8.516;2022-09-09T03:55:26;18.70;72.50
12156;DHT22;6141;49.092;8.516;2022-09-09T03:58:35;18.90;72.60
12156;DHT22;6141;49.092;8.516;2022-09-09T04:01:15;19.00;72.40
12156;DHT22;6141;49.092;8.516;2022-09-09T04:04:43;18.80;71.40
12156;DHT22;6141;49.092;8.516;2022-09-09T04:07:36;18.80;71.80
12156;DHT22;6141;49.092;8.516;2022-09-09T04:10:41;18.70;71.60
12156;DHT22;6141;49.092;8.516;2022-09-09T04:14:04;18.60;72.00
12156;DHT22;6141;49.092;8.516;2022-09-09T04:17:37;18.60;73.10
12156;DHT22;6141;49.092;8.516;2022-09-09T04:20:41;18.40;73.40
12156;DHT22;6141;49.092;8.516;2022-09-09T04:23:53;18.50;72.80
12156;DHT22;6141;49.092;8.516;2022-09-09T04:27:14;18.30;72.90
12156;DHT22;6141;49.092;8.516;2022-09-09T04:30:17;18.30;74.10
12156;DHT22;6141;49.092;8.516;2022-09-09T04:33:34;18.40;74.20
12156;DHT22;6141;49.092;8.516;2022-09-09T04:36:30;18.40;74.20
12156;DHT22;6141;49.092;8.516;2022-09-09T04:40:09;18.50;74.30
12156;DHT22;6141;49.092;8.516;2022-09-09T04:43:25;18.60;74.40
12156;DHT22;6141;49.092;8.516;2022-09-09T04:46:20;18.50;73.40
12156;DHT22;6141;49.092;8.516;2022-09-09T04:52:21;18.50;73.90
12156;DHT22;6141;49.092;8.516;2022-09-09T04:55:19;18.40;74.20
12156;DHT22;6141;49.092;8.516;2022-09-09T04:58:25;18.50;74.70
12156;DHT22;6141;49.092;8.516;2022-09-09T05:01:34;18.40;74.90
12156;DHT22;6141;49.092;8.516;2022-09-09T05:04:33;18.50;74.50
12156;DHT22;6141;49.092;8.516;2022-09-09T05:07:30;18.50;74.30
12156;DHT22;6141;49.092;8.516;2022-09-09T05:10:40;18.50;74.30
12156;DHT22;6141;49.092;8.516;2022-09-09T05:13:29;18.70;74.20
12156;DHT22;6141;49.092;8.516;2022-09-09T05:16:35;18.80;72.30
12156;DHT22;6141;49.092;8.516;2022-09-09T05:19:33;18.70;72.00
12156;DHT22;6141;49.092;8.516;2022-09-09T05:22:26;18.80;72.20
12156;DHT22;6141;49.092;8.516;2022-09-09T05:25:14;18.70;71.70
12156;DHT22;6141;49.092;8.516;2022-09-09T05:28:00;18.70;72.20
12156;DHT22;6141;49.092;8.516;2022-09-09T05:31:04;18.80;71.30
12156;DHT22;6141;49.092;8.516;2022-09-09T05:34:15;18.70;71.30
12156;DHT22;6141;49.092;8.516;2022-09-09T05:36:55;18.70;72.10
12156;DHT22;6141;49.092;8.516;2022-09-09T05:39:51;18.40;71.40
12156;DHT22;6141;49.092;8.516;2022-09-09T05:42:49;18.50;72.40
12156;DHT22;6141;49.092;8.516;2022-09-09T05:46:10;18.50;72.30
12156;DHT22;6141;49.092;8.516;2022-09-09T05:48:54;18.40;72.70
12156;DHT22;6141;49.092;8.516;2022-09-09T05:52:03;18.40;74.10
12156;DHT22;6141;49.092;8.516;2022-09-09T05:55:22;18.50;73.60
12156;DHT22;6141;49.092;8.516;2022-09-09T05:58:18;18.50;73.60
12156;DHT22;6141;49.092;8.516;2022-09-09T06:01:18;18.50;73.00
12156;DHT22;6141;49.092;8.516;2022-09-09T06:04:03;18.60;72.10
12156;DHT22;6141;49.092;8.516;2022-09-09T06:07:56;18.70;71.70
12156;DHT22;6141;49.092;8.516;2022-09-09T06:11:19;18.80;73.10
12156;DHT22;6141;49.092;8.516;2022-09-09T06:14:00;19.10;72.00
12156;DHT22;6141;49.092;8.516;2022-09-09T06:16:58;18.90;72.10
12156;DHT22;6141;49.092;8.516;2022-09-09T06:20:03;18.90;71.80
12156;DHT22;6141;49.092;8.516;2022-09-09T06:23:08;18.90;72.20
12156;DHT22;6141;49.092;8.516;2022-09-09T06:25:46;18.90;72.00
12156;DHT22;6141;49.092;8.516;2022-09-09T06:28:36;19.00;72.20
12156;DHT22;6141;49.092;8.516;2022-09-09T06:31:20;19.10;71.00
12156;DHT22;6141;49.092;8.516;2022-09-09T06:34:31;18.90;72.30
12156;DHT22;6141;49.092;8.516;2022-09-09T06:37:27;18.90;72.30
12156;DHT22;6141;49.092;8.516;2022-09-09T06:40:45;19.00;72.60
12156;DHT22;6141;49.092;8.516;2022-09-09T06:43:38;19.10;71.70
12156;DHT22;6141;49.092;8.516;2022-09-09T06:46:29;19.20;71.70
12156;DHT22;6141;49.092;8.516;2022-09-09T06:49:13;19.30;71.70
12156;DHT22;6141;49.092;8.516;2022-09-09T06:52:40;19.40;70.80
12156;DHT22;6141;49.092;8.516;2022-09-09T06:55:51;19.40;70.20
12156;DHT22;6141;49.092;8.516;2022-09-09T06:58:51;19.50;70.70
12156;DHT22;6141;49.092;8.516;2022-09-09T07:01:48;19.60;71.70
12156;DHT22;6141;49.092;8.516;2022-09-09T07:04:38;19.70;71.70
12156;DHT22;6141;49.092;8.516;2022-09-09T07:07:31;19.90;70.70
12156;DHT22;6141;49.092;8.516;2022-09-09T07:10:27;20.10;68.50
12156;DHT22;6141;49.092;8.516;2022-09-09T07:13:46;20.30;67.20
12156;DHT22;6141;49.092;8.516;2022-09-09T07:17:12;20.40;67.00
12156;DHT22;6141;49.092;8.516;2022-09-09T07:20:40;20.40;66.70
12156;DHT22;6141;49.092;8.516;2022-09-09T07:23:44;20.40;67.20
12156;DHT22;6141;49.092;8.516;2022-09-09T07:26:44;20.50;66.10
12156;DHT22;6141;49.092;8.516;2022-09-09T07:30:15;20.60;66.00
12156;DHT22;6141;49.092;8.516;2022-09-09T07:33:14;20.90;65.50
12156;DHT22;6141;49.092;8.516;2022-09-09T07:36:19;20.80;62.30
12156;DHT22;6141;49.092;8.516;2022-09-09T07:43:00;20.90;63.50
12156;DHT22;6141;49.092;8.516;2022-09-09T07:46:14;20.80;62.50
12156;DHT22;6141;49.092;8.516;2022-09-09T07:49:14;20.70;64.90
12156;DHT22;6141;49.092;8.516;2022-09-09T07:52:11;20.40;65.80
12156;DHT22;6141;49.092;8.516;2022-09-09T07:54:55;20.00;67.80
12156;DHT22;6141;49.092;8.516;2022-09-09T07:58:20;20.20;66.40
12156;DHT22;6141;49.092;8.516;2022-09-09T08:01:52;20.30;69.20
12156;DHT22;6141;49.092;8.516;2022-09-09T08:04:49;20.30;67.90
12156;DHT22;6141;49.092;8.516;2022-09-09T08:07:32;20.50;68.90
12156;DHT22;6141;49.092;8.516;2022-09-09T08:10:27;20.70;68.80
12156;DHT22;6141;49.092;8.516;2022-09-09T08:13:21;21.00;66.60
12156;DHT22;6141;49.092;8.516;2022-09-09T08:16:30;21.00;66.10
12156;DHT22;6141;49.092;8.516;2022-09-09T08:22:29;21.30;64.80
12156;DHT22;6141;49.092;8.516;2022-09-09T08:25:30;21.20;62.70
12156;DHT22;6141;49.092;8.516;2022-09-09T08:28:48;21.20;63.70
12156;DHT22;6141;49.092;8.516;2022-09-09T08:31:58;21.20;62.90
12156;DHT22;6141;49.092;8.516;2022-09-09T08:35:09;21.10;63.00
12156;DHT22;6141;49.092;8.516;2022-09-09T08:38:17;20.60;66.20
12156;DHT22;6141;49.092;8.516;2022-09-09T08:44:53;20.60;69.10
12156;DHT22;6141;49.092;8.516;2022-09-09T08:48:44;20.50;69.40
12156;DHT22;6141;49.092;8.516;2022-09-09T08:51:37;20.70;70.90
12156;DHT22;6141;49.092;8.516;2022-09-09T08:54:57;21.00;70.80
12156;DHT22;6141;49.092;8.516;2022-09-09T08:57:54;21.10;70.20
12156;DHT22;6141;49.092;8.516;2022-09-09T09:01:35;21.20;74.30
12156;DHT22;6141;49.092;8.516;2022-09-09T09:08:29;21.50;62.00
12156;DHT22;6141;49.092;8.516;2022-09-09T09:12:38;21.40;65.20
12156;DHT22;6141;49.092;8.516;2022-09-09T09:15:41;21.20;64.00
12156;DHT22;6141;49.092;8.516;2022-09-09T09:18:48;20.80;65.40
12156;DHT22;6141;49.092;8.516;2022-09-09T09:21:50;20.50;64.10
12156;DHT22;6141;49.092;8.516;2022-09-09T09:25:14;20.30;66.00
12156;DHT22;6141;49.092;8.516;2022-09-09T09:28:52;20.30;66.00
12156;DHT22;6141;49.092;8.516;2022-09-09T09:33:02;20.50;68.60
12156;DHT22;6141;49.092;8.516;2022-09-09T09:36:08;21.20;69.60
12156;DHT22;6141;49.092;8.516;2022-09-09T09:39:43;21.50;64.10
12156;DHT22;6141;49.092;8.516;2022-09-09T09:43:03;21.50;62.00
12156;DHT22;6141;49.092;8.516;2022-09-09T09:47:22;21.40;59.70
12156;DHT22;6141;49.092;8.516;2022-09-09T09:50:32;21.40;61.90
12156;DHT22;6141;49.092;8.516;2022-09-09T09:53:42;21.70;58.10
12156;DHT22;6141;49.092;8.516;2022-09-09T09:56:51;21.90;57.20
12156;DHT22;6141;49.092;8.516;2022-09-09T10:03:50;22.50;55.10
12156;DHT22;6141;49.092;8.516;2022-09-09T10:06:44;22.70;55.20
12156;DHT22;6141;49.092;8.516;2022-09-09T10:09:32;22.90;53.10
12156;DHT22;6141;49.092;8.516;2022-09-09T10:12:28;23.10;53.40
12156;DHT22;6141;49.092;8.516;2022-09-09T10:15:32;23.20;50.10
12156;DHT22;6141;49.092;8.516;2022-09-09T10:18:26;23.00;49.60
12156;DHT22;6141;49.092;8.516;2022-09-09T10:21:19;22.80;49.70
12156;DHT22;6141;49.092;8.516;2022-09-09T10:24:44;22.70;52.50
12156;DHT22;6141;49.092;8.516;2022-09-09T10:28:13;22.90;50.60
12156;DHT22;6141;49.092;8.516;2022-09-09T10:31:45;22.90;51.50
12156;DHT22;6141;49.092;8.516;2022-09-09T10:35:15;22.70;50.70
12156;DHT22;6141;49.092;8.516;2022-09-09T10:38:54;22.90;50.10
12156;DHT22;6141;49.092;8.516;2022-09-09T10:42:16;23.20;48.90
12156;DHT22;6141;49.092;8.516;2022-09-09T10:45:32;22.90;47.50
12156;DHT22;6141;49.092;8.516;2022-09-09T10:49:08;23.00;47.20
12156;DHT22;6141;49.092;8.516;2022-09-09T10:58:48;23.20;47.80
12156;DHT22;6141;49.092;8.516;2022-09-09T11:01:52;23.20;45.40
12156;DHT22;6141;49.092;8.516;2022-09-09T11:04:54;23.00;45.20
12156;DHT22;6141;49.092;8.516;2022-09-09T11:07:40;23.10;47.60
12156;DHT22;6141;49.092;8.516;2022-09-09T11:10:41;23.10;44.10
12156;DHT22;6141;49.092;8.516;2022-09-09T11:13:44;23.00;45.20
12156;DHT22;6141;49.092;8.516;2022-09-09T11:16:56;23.00;42.50
12156;DHT22;6141;49.092;8.516;2022-09-09T11:19:46;22.90;44.00
12156;DHT22;6141;49.092;8.516;2022-09-09T11:22:55;23.00;43.60
12156;DHT22;6141;49.092;8.516;2022-09-09T11:26:24;23.20;44.90
12156;DHT22;6141;49.092;8.516;2022-09-09T11:29:38;23.50;44.90
12156;DHT22;6141;49.092;8.516;2022-09-09T11:33:18;23.60;41.70
12156;DHT22;6141;49.092;8.516;2022-09-09T11:37:08;23.70;42.20
12156;DHT22;6141;49.092;8.516;2022-09-09T11:40:23;23.90;44.40
12156;DHT22;6141;49.092;8.516;2022-09-09T11:43:27;24.10;41.90
12156;DHT22;6141;49.092;8.516;2022-09-09T11:46:55;24.10;42.30
12156;DHT22;6141;49.092;8.516;2022-09-09T11:49:52;24.10;41.20
12156;DHT22;6141;49.092;8.516;2022-09-09T11:52:39;24.10;41.60
12156;DHT22;6141;49.092;8.516;2022-09-09T12:01:48;23.70;41.40
12156;DHT22;6141;49.092;8.516;2022-09-09T12:05:00;23.60;43.60
12156;DHT22;6141;49.092;8.516;2022-09-09T12:08:52;23.90;41.60
12156;DHT22;6141;49.092;8.516;2022-09-09T12:12:17;23.80;39.50
12156;DHT22;6141;49.092;8.516;2022-09-09T12:15:36;23.90;41.00
12156;DHT22;6141;49.092;8.516;2022-09-09T12:19:38;23.90;39.70
12156;DHT22;6141;49.092;8.516;2022-09-09T12:26:47;24.30;42.50
12156;DHT22;6141;49.092;8.516;2022-09-09T12:30:12;24.50;40.20
12156;DHT22;6141;49.092;8.516;2022-09-09T12:33:11;24.60;39.30
12156;DHT22;6141;49.092;8.516;2022-09-09T12:36:22;24.70;37.90
12156;DHT22;6141;49.092;8.516;2022-09-09T12:39:44;24.50;37.40
12156;DHT22;6141;49.092;8.516;2022-09-09T12:42:42;24.40;38.20
12156;DHT22;6141;49.092;8.516;2022-09-09T12:45:37;24.10;39.80
12156;DHT22;6141;49.092;8.516;2022-09-09T12:48:20;23.80;41.30
12156;DHT22;6141;49.092;8.516;2022-09-09T12:51:37;23.40;47.50
12156;DHT22;6141;49.092;8.516;2022-09-09T12:54:32;23.20;52.60
12156;DHT22;6141;49.092;8.516;2022-09-09T12:57:59;23.40;54.70
12156;DHT22;6141;49.092;8.516;2022-09-09T13:00:56;23.20;51.80
12156;DHT22;6141;49.092;8.516;2022-09-09T13:03:45;23.10;50.00
12156;DHT22;6141;49.092;8.516;2022-09-09T13:07:38;22.50;52.40
12156;DHT22;6141;49.092;8.516;2022-09-09T13:10:19;22.10;54.50
12156;DHT22;6141;49.092;8.516;2022-09-09T13:13:36;21.90;56.20
12156;DHT22;6141;49.092;8.516;2022-09-09T13:16:53;22.00;61.40
12156;DHT22;6141;49.092;8.516;2022-09-09T13:19:45;22.10;56.90
12156;DHT22;6141;49.092;8.516;2022-09-09T13:22:33;21.90;65.00
12156;DHT22;6141;49.092;8.516;2022-09-09T13:25:51;21.50;62.30
12156;DHT22;6141;49.092;8.516;2022-09-09T13:28:49;21.30;66.90
12156;DHT22;6141;49.092;8.516;2022-09-09T13:31:53;21.20;66.80
12156;DHT22;6141;49.092;8.516;2022-09-09T13:38:20;21.90;68.30
12156;DHT22;6141;49.092;8.516;2022-09-09T13:41:32;22.40;66.40
12156;DHT22;6141;49.092;8.516;2022-09-09T13:44:34;22.70;65.00
12156;DHT22;6141;49.092;8.516;2022-09-09T13:47:46;23.10;58.00
12156;DHT22;6141;49.092;8.516;2022-09-09T13:51:02;23.30;64.90
12156;DHT22;6141;49.092;8.516;2022-09-09T13:54:03;23.40;54.70
12156;DHT22;6141;49.092;8.516;2022-09-09T13:57:00;23.70;58.70
12156;DHT22;6141;49.092;8.516;2022-09-09T14:00:12;24.00;54.60
12156;DHT22;6141;49.092;8.516;2022-09-09T14:03:37;24.30;56.60
12156;DHT22;6141;49.092;8.516;2022-09-09T14:06:47;24.50;53.50
12156;DHT22;6141;49.092;8.516;2022-09-09T14:09:37;24.60;54.00
12156;DHT22;6141;49.092;8.516;2022-09-09T14:12:44;24.60;53.50
12156;DHT22;6141;49.092;8.516;2022-09-09T14:16:16;24.40;52.60
12156;DHT22;6141;49.092;8.516;2022-09-09T14:19:21;24.00;53.00
12156;DHT22;6141;49.092;8.516;2022-09-09T14:25:48;23.70;52.80
12156;DHT22;6141;49.092;8.516;2022-09-09T14:28:54;23.40;53.90
12156;DHT22;6141;49.092;8.516;2022-09-09T14:31:56;22.40;50.30
12156;DHT22;6141;49.092;8.516;2022-09-09T14:34:53;21.90;65.70
12156;DHT22;6141;49.092;8.516;2022-09-09T14:38:13;21.80;60.80
12156;DHT22;6141;49.092;8.516;2022-09-09T14:41:25;21.80;57.90
12156;DHT22;6141;49.092;8.516;2022-09-09T14:44:28;21.70;56.50
12156;DHT22;6141;49.092;8.516;2022-09-09T14:47:19;21.60;58.30
12156;DHT22;6141;49.092;8.516;2022-09-09T14:50:50;21.60;64.10
12156;DHT22;6141;49.092;8.516;2022-09-09T14:53:29;21.50;63.70
12156;DHT22;6141;49.092;8.516;2022-09-09T14:56:14;21.20;65.50
12156;DHT22;6141;49.092;8.516;2022-09-09T14:59:32;21.00;66.50
12156;DHT22;6141;49.092;8.516;2022-09-09T15:02:32;20.90;64.30
12156;DHT22;6141;49.092;8.516;2022-09-09T15:05:10;21.00;62.90
12156;DHT22;6141;49.092;8.516;2022-09-09T15:08:01;20.70;64.70
12156;DHT22;6141;49.092;8.516;2022-09-09T15:10:49;20.50;65.70
12156;DHT22;6141;49.092;8.516;2022-09-09T15:14:03;20.10;66.90
12156;DHT22;6141;49.092;8.516;2022-09-09T15:20:10;19.70;70.60
12156;DHT22;6141;49.092;8.516;2022-09-09T15:42:03;20.80;69.70
12156;DHT22;6141;49.092;8.516;2022-09-09T15:45:52;20.90;67.10
12156;DHT22;6141;49.092;8.516;2022-09-09T15:53:45;20.80;71.30
12156;DHT22;6141;49.092;8.516;2022-09-09T15:56:36;20.60;70.60
12156;DHT22;6141;49.092;8.516;2022-09-09T15:59:19;20.80;71.40
12156;DHT22;6141;49.092;8.516;2022-09-09T16:02:35;20.50;71.10
12156;DHT22;6141;49.092;8.516;2022-09-09T16:05:20;20.20;73.40
12156;DHT22;6141;49.092;8.516;2022-09-09T16:07:49;20.20;70.80
12156;DHT22;6141;49.092;8.516;2022-09-09T16:10:24;20.00;69.30
12156;DHT22;6141;49.092;8.516;2022-09-09T16:12:53;20.00;69.80
12156;DHT22;6141;49.092;8.516;2022-09-09T16:15:38;19.80;69.70
12156;DHT22;6141;49.092;8.516;2022-09-09T16:18:07;20.00;70.50
12156;DHT22;6141;49.092;8.516;2022-09-09T16:20:41;19.80;69.90
12156;DHT22;6141;49.092;8.516;2022-09-09T16:23:16;19.70;69.70
12156;DHT22;6141;49.092;8.516;2022-09-09T16:26:01;19.60;70.50
12156;DHT22;6141;49.092;8.516;2022-09-09T16:28:40;19.80;69.10
12156;DHT22;6141;49.092;8.516;2022-09-09T16:31:17;20.00;69.40
12156;DHT22;6141;49.092;8.516;2022-09-09T16:33:47;20.10;69.20
12156;DHT22;6141;49.092;8.516;2022-09-09T16:36:18;20.20;65.90
12156;DHT22;6141;49.092;8.516;2022-09-09T16:38:52;20.40;65.50
12156;DHT22;6141;49.092;8.516;2022-09-09T16:41:39;20.40;66.10
12156;DHT22;6141;49.092;8.516;2022-09-09T16:44:16;20.50;66.20
12156;DHT22;6141;49.092;8.516;2022-09-09T16:46:48;20.50;65.20
12156;DHT22;6141;49.092;8.516;2022-09-09T16:49:26;20.70;65.10
12156;DHT22;6141;49.092;8.516;2022-09-09T16:52:04;20.50;63.80
12156;DHT22;6141;49.092;8.516;2022-09-09T16:54:44;20.40;62.80
12156;DHT22;6141;49.092;8.516;2022-09-09T16:57:13;20.10;65.00
12156;DHT22;6141;49.092;8.516;2022-09-09T16:59:45;20.00;65.00
12156;DHT22;6141;49.092;8.516;2022-09-09T17:02:17;19.90;65.70
12156;DHT22;6141;49.092;8.516;2022-09-09T17:04:49;19.40;67.70
12156;DHT22;6141;49.092;8.516;2022-09-09T17:07:41;19.50;66.90
12156;DHT22;6141;49.092;8.516;2022-09-09T17:10:12;19.60;68.00
12156;DHT22;6141;49.092;8.516;2022-09-09T17:12:47;19.60;68.00
12156;DHT22;6141;49.092;8.516;2022-09-09T17:15:16;19.70;68.10
12156;DHT22;6141;49.092;8.516;2022-09-09T17:17:47;19.90;68.20
12156;DHT22;6141;49.092;8.516;2022-09-09T17:20:22;20.00;66.60
12156;DHT22;6141;49.092;8.516;2022-09-09T17:22:51;20.10;66.90
12156;DHT22;6141;49.092;8.516;2022-09-09T17:25:20;20.10;66.70
12156;DHT22;6141;49.092;8.516;2022-09-09T17:27:49;20.20;65.90
12156;DHT22;6141;49.092;8.516;2022-09-09T17:30:47;20.00;65.80
12156;DHT22;6141;49.092;8.516;2022-09-09T17:33:56;20.00;65.80
12156;DHT22;6141;49.092;8.516;2022-09-09T17:36:35;20.00;65.30
12156;DHT22;6141;49.092;8.516;2022-09-09T17:39:33;19.90;65.60
12156;DHT22;6141;49.092;8.516;2022-09-09T17:42:21;19.80;66.40
12156;DHT22;6141;49.092;8.516;2022-09-09T17:44:51;19.90;65.70
12156;DHT22;6141;49.092;8.516;2022-09-09T17:47:38;20.00;65.80
12156;DHT22;6141;49.092;8.516;2022-09-09T17:50:59;20.20;65.30
12156;DHT22;6141;49.092;8.516;2022-09-09T17:54:15;20.00;64.30
12156;DHT22;6141;49.092;8.516;2022-09-09T17:57:46;19.90;64.70
12156;DHT22;6141;49.092;8.516;2022-09-09T18:01:16;19.80;64.40
12156;DHT22;6141;49.092;8.516;2022-09-09T18:03:53;19.70;64.60
12156;DHT22;6141;49.092;8.516;2022-09-09T18:06:49;19.60;65.40
12156;DHT22;6141;49.092;8.516;2022-09-09T18:09:22;19.90;65.20
12156;DHT22;6141;49.092;8.516;2022-09-09T18:12:01;19.70;64.10
12156;DHT22;6141;49.092;8.516;2022-09-09T18:14:33;19.60;63.70
12156;DHT22;6141;49.092;8.516;2022-09-09T18:17:03;19.60;64.70
12156;DHT22;6141;49.092;8.516;2022-09-09T18:19:32;19.60;64.70
12156;DHT22;6141;49.092;8.516;2022-09-09T18:22:19;19.60;65.40
12156;DHT22;6141;49.092;8.516;2022-09-09T18:25:02;19.40;65.20
12156;DHT22;6141;49.092;8.516;2022-09-09T18:27:35;19.30;65.70
12156;DHT22;6141;49.092;8.516;2022-09-09T18:30:08;19.20;65.10
12156;DHT22;6141;49.092;8.516;2022-09-09T18:32:39;19.10;65.00
12156;DHT22;6141;49.092;8.516;2022-09-09T18:35:13;19.00;65.20
12156;DHT22;6141;49.092;8.516;2022-09-09T18:37:47;19.10;65.50
12156;DHT22;6141;49.092;8.516;2022-09-09T18:40:23;19.20;65.60
12156;DHT22;6141;49.092;8.516;2022-09-09T18:43:01;19.10;66.20
12156;DHT22;6141;49.092;8.516;2022-09-09T18:46:10;19.10;65.80
12156;DHT22;6141;49.092;8.516;2022-09-09T18:50:00;19.20;65.10
12156;DHT22;6141;49.092;8.516;2022-09-09T18:52:21;19.30;65.40
12156;DHT22;6141;49.092;8.516;2022-09-09T18:55:36;19.20;65.10
12156;DHT22;6141;49.092;8.516;2022-09-09T18:58:29;19.20;65.10
12156;DHT22;6141;49.092;8.516;2022-09-09T19:01:33;19.10;65.00
12156;DHT22;6141;49.092;8.516;2022-09-09T19:04:21;19.30;65.20
12156;DHT22;6141;49.092;8.516;2022-09-09T19:07:16;19.50;65.30
12156;DHT22;6141;49.092;8.516;2022-09-09T19:10:07;19.70;65.50
12156;DHT22;6141;49.092;8.516;2022-09-09T19:22:24;19.70;65.50
12156;DHT22;6141;49.092;8.516;2022-09-09T19:44:06;19.60;68.70
12156;DHT22;6141;49.092;8.516;2022-09-09T19:47:30;19.90;68.80
12156;DHT22;6141;49.092;8.516;2022-09-09T19:50:41;19.80;67.20
12156;DHT22;6141;49.092;8.516;2022-09-09T20:01:46;19.40;65.80
12156;DHT22;6141;49.092;8.516;2022-09-09T20:09:24;19.40;68.00
12156;DHT22;6141;49.092;8.516;2022-09-09T20:13:01;19.30;68.00
12156;DHT22;6141;49.092;8.516;2022-09-09T20:16:15;19.40;67.90
12156;DHT22;6141;49.092;8.516;2022-09-09T20:19:27;19.50;68.10
12156;DHT22;6141;49.092;8.516;2022-09-09T20:22:53;19.50;68.10
12156;DHT22;6141;49.092;8.516;2022-09-09T20:26:24;19.50;68.20
12156;DHT22;6141;49.092;8.516;2022-09-09T20:29:41;19.50;67.90
12156;DHT22;6141;49.092;8.516;2022-09-09T20:33:02;19.30;68.00
12156;DHT22;6141;49.092;8.516;2022-09-09T20:40:23;19.40;69.10
12156;DHT22;6141;49.092;8.516;2022-09-09T20:43:19;19.50;68.70
12156;DHT22;6141;49.092;8.516;2022-09-09T20:46:49;19.50;68.00
12156;DHT22;6141;49.092;8.516;2022-09-09T20:50:07;19.60;67.80
12156;DHT22;6141;49.092;8.516;2022-09-09T20:53:31;19.40;66.90
12156;DHT22;6141;49.092;8.516;2022-09-09T21:00:33;19.50;67.80
12156;DHT22;6141;49.092;8.516;2022-09-09T21:11:59;19.40;66.60
12156;DHT22;6141;49.092;8.516;2022-09-09T21:18:51;19.10;68.30
12156;DHT22;6141;49.092;8.516;2022-09-09T21:22:00;19.20;68.20
12156;DHT22;6141;49.092;8.516;2022-09-09T21:25:06;19.30;68.70
12156;DHT22;6141;49.092;8.516;2022-09-09T21:28:03;19.30;68.50
12156;DHT22;6141;49.092;8.516;2022-09-09T21:31:37;19.50;68.60
12156;DHT22;6141;49.092;8.516;2022-09-09T21:38:45;19.50;68.60
12156;DHT22;6141;49.092;8.516;2022-09-09T21:42:16;19.40;69.90
12156;DHT22;6141;49.092;8.516;2022-09-09T21:45:31;19.20;70.00
12156;DHT22;6141;49.092;8.516;2022-09-09T21:48:24;18.50;74.90
12156;DHT22;6141;49.092;8.516;2022-09-09T21:52:08;18.30;75.60
12156;DHT22;6141;49.092;8.516;2022-09-09T21:55:26;18.50;75.40